Time;durP1;ratioP1;P1;durP2;ratioP2;P2;SDS_P1;SDS_P2;PMS_P1;PMS_P2;Temp;Humidity;BMP_temperature;BMP_pressure;BME280_temperature;BME280_humidity;BME280_pressure;Samples;Min_cycle;Max_cycle;Signal;HPM_P1;HPM_P2
2022/12/16 00:00:14;;;;;;;30.60;18.38;;;-1.80;99.90;;;;;;5043871;28;20032;-74
2022/12/16 00:02:40;;;;;;;30.98;18.73;;;-1.80;99.90;;;;;;5063978;28;20506;-74
2022/12/16 00:05:07;;;;;;;34.05;19.00;;;-1.70;99.90;;;;;;5049050;28;20036;-74
2022/12/16 00:07:33;;;;;;;32.38;19.85;;;-1.70;99.90;;;;;;5042559;28;20482;-74
2022/12/16 00:09:59;;;;;;;31.10;16.42;;;-1.80;99.90;;;;;;5040468;28;20064;-74
2022/12/16 00:12:25;;;;;;;29.08;16.63;;;-1.80;99.90;;;;;;5042657;28;20064;-74
2022/12/16 00:14:51;;;;;;;30.40;17.42;;;-1.80;99.90;;;;;;5045237;28;20020;-74
2022/12/16 00:17:16;;;;;;;27.38;15.90;;;-1.80;99.90;;;;;;5045059;28;20024;-74
2022/12/16 00:19:42;;;;;;;30.75;15.95;;;-1.80;99.90;;;;;;5038432;28;20059;-74
2022/12/16 00:22:08;;;;;;;29.70;18.38;;;-1.80;99.90;;;;;;5057029;28;20542;-74
2022/12/16 00:24:33;;;;;;;34.10;18.70;;;-1.80;99.90;;;;;;5053894;28;20029;-73
2022/12/16 00:26:59;;;;;;;26.95;16.98;;;-1.80;99.90;;;;;;5047026;28;20029;-74
2022/12/16 00:29:24;;;;;;;37.78;19.55;;;-1.80;99.90;;;;;;5043264;28;20524;-74
2022/12/16 00:31:50;;;;;;;31.88;17.02;;;-1.80;99.90;;;;;;5037032;28;20033;-74
2022/12/16 00:34:16;;;;;;;31.02;16.33;;;-1.80;99.90;;;;;;5038625;28;20111;-74
2022/12/16 00:36:42;;;;;;;33.53;15.70;;;-1.90;99.90;;;;;;5034926;28;20040;-73
2022/12/16 00:39:09;;;;;;;30.70;15.85;;;-1.90;99.90;;;;;;5028567;28;20119;-74
2022/12/16 00:41:35;;;;;;;27.63;17.67;;;-1.90;99.90;;;;;;5038133;28;20029;-74
2022/12/16 00:44:00;;;;;;;34.95;19.02;;;-1.90;99.90;;;;;;5037943;28;20029;-74
2022/12/16 00:46:26;;;;;;;31.02;16.88;;;-1.90;99.90;;;;;;5035526;28;20034;-74
2022/12/16 00:48:51;;;;;;;29.33;16.83;;;-2.00;99.90;;;;;;5040021;28;20546;-73
2022/12/16 00:51:17;;;;;;;29.20;17.17;;;-2.00;99.90;;;;;;5045177;28;20069;-73
2022/12/16 00:53:43;;;;;;;30.40;16.10;;;-2.00;99.90;;;;;;5044302;28;20104;-75
2022/12/16 00:56:11;;;;;;;27.42;16.65;;;-2.00;99.90;;;;;;5043040;28;20115;-74
2022/12/16 00:58:37;;;;;;;25.00;15.98;;;-2.00;99.90;;;;;;5041602;28;20120;-74
2022/12/16 01:01:03;;;;;;;23.45;15.68;;;-1.90;99.90;;;;;;5045721;28;20079;-75
2022/12/16 01:03:29;;;;;;;27.23;15.80;;;-1.90;99.90;;;;;;5031483;28;20564;-75
2022/12/16 01:05:55;;;;;;;26.92;15.27;;;-1.90;99.90;;;;;;5039677;28;20052;-75
2022/12/16 01:08:20;;;;;;;35.38;16.95;;;-1.90;99.90;;;;;;5038121;28;20071;-74
2022/12/16 01:10:51;;;;;;;34.08;17.17;;;-1.90;99.90;;;;;;5041299;28;20475;-75
2022/12/16 01:13:17;;;;;;;29.63;16.75;;;-2.00;99.90;;;;;;5031385;28;20040;-74
2022/12/16 01:15:43;;;;;;;30.13;16.60;;;-2.00;99.90;;;;;;5044192;28;20033;-74
2022/12/16 01:18:09;;;;;;;36.47;16.70;;;-2.00;99.90;;;;;;5040317;28;20556;-75
2022/12/16 01:20:35;;;;;;;32.95;17.45;;;-2.00;99.90;;;;;;5046559;28;20115;-74
2022/12/16 01:23:01;;;;;;;26.98;16.52;;;-2.00;99.90;;;;;;5038669;28;20079;-74
2022/12/16 01:25:26;;;;;;;33.10;16.83;;;-2.00;99.90;;;;;;5030831;28;20029;-76
2022/12/16 01:27:52;;;;;;;25.90;15.18;;;-2.10;99.90;;;;;;5041758;28;20038;-75
2022/12/16 01:30:17;;;;;;;24.75;14.77;;;-2.00;99.90;;;;;;5038266;28;20132;-75
2022/12/16 01:32:43;;;;;;;29.33;16.52;;;-2.10;99.90;;;;;;5040972;28;20037;-76
2022/12/16 01:35:09;;;;;;;28.48;16.88;;;-2.10;99.90;;;;;;5037372;28;20029;-74
2022/12/16 01:37:35;;;;;;;31.40;15.50;;;-2.10;99.90;;;;;;5039869;28;20036;-75
2022/12/16 01:40:01;;;;;;;27.85;16.15;;;-2.10;99.90;;;;;;5048820;28;20107;-74
2022/12/16 01:42:31;;;;;;;29.60;16.75;;;-2.10;99.90;;;;;;5050705;28;20029;-74
2022/12/16 01:45:33;;;;;;;32.00;16.65;;;-2.20;99.90;;;;;;5054415;28;20013;-76
2022/12/16 01:48:22;;;;;;;30.45;17.13;;;-2.20;99.90;;;;;;5038921;28;20036;-75
2022/12/16 01:50:51;;;;;;;30.52;15.57;;;-2.20;99.90;;;;;;5064677;28;20084;-74
2022/12/16 01:53:16;;;;;;;29.08;16.85;;;-2.20;99.90;;;;;;5044019;28;20030;-74
2022/12/16 01:55:47;;;;;;;35.47;17.73;;;-2.20;99.90;;;;;;5043556;28;20032;-75
2022/12/16 01:58:21;;;;;;;31.73;17.50;;;-2.20;99.90;;;;;;5041688;28;20052;-74
2022/12/16 02:00:47;;;;;;;33.30;16.25;;;-2.20;99.90;;;;;;5056933;28;20031;-75
2022/12/16 02:03:13;;;;;;;30.13;15.88;;;-2.20;99.90;;;;;;5046182;28;20033;-74
2022/12/16 02:05:41;;;;;;;27.40;15.68;;;-2.10;99.90;;;;;;5066495;28;20140;-74
2022/12/16 02:08:12;;;;;;;29.50;15.90;;;-2.10;99.90;;;;;;5064101;28;20045;-75
2022/12/16 02:10:51;;;;;;;34.90;16.90;;;-2.10;99.90;;;;;;5057494;28;20037;-74
2022/12/16 02:13:54;;;;;;;30.48;15.98;;;-2.10;99.90;;;;;;5038043;28;20022;-73
2022/12/16 02:16:37;;;;;;;32.92;16.35;;;-2.10;99.90;;;;;;5045203;28;20023;-73
2022/12/16 02:19:17;;;;;;;29.23;15.82;;;-2.20;99.90;;;;;;5045323;28;20037;-74
2022/12/16 02:22:06;;;;;;;30.52;16.73;;;-2.20;99.90;;;;;;5055095;28;20108;-74
2022/12/16 02:25:01;;;;;;;32.33;15.55;;;-2.20;99.90;;;;;;5042232;28;20029;-73
2022/12/16 02:27:49;;;;;;;25.02;14.00;;;-2.20;99.90;;;;;;5038669;28;20100;-73
2022/12/16 02:30:40;;;;;;;27.02;14.60;;;-2.20;99.90;;;;;;5036073;28;20092;-75
2022/12/16 02:33:17;;;;;;;24.17;14.40;;;-2.20;99.90;;;;;;5043031;28;20753;-74
2022/12/16 02:35:58;;;;;;;26.70;13.93;;;-2.20;99.90;;;;;;5045293;28;20037;-73
2022/12/16 02:38:42;;;;;;;31.58;14.48;;;-2.20;99.90;;;;;;5036135;28;20055;-74
2022/12/16 02:41:23;;;;;;;29.15;14.73;;;-2.20;99.90;;;;;;5038961;28;20140;-74
2022/12/16 02:44:07;;;;;;;32.55;17.15;;;-2.10;99.90;;;;;;5053892;28;20095;-74
2022/12/16 02:46:40;;;;;;;31.00;15.27;;;-2.10;99.90;;;;;;5061051;28;20032;-73
2022/12/16 02:49:11;;;;;;;31.77;15.15;;;-2.10;99.90;;;;;;5045487;28;20544;-74
2022/12/16 02:51:38;;;;;;;32.00;15.75;;;-2.10;99.90;;;;;;5036816;28;20036;-75
2022/12/16 02:54:07;;;;;;;31.42;15.23;;;-2.00;99.90;;;;;;5041929;28;20024;-75
2022/12/16 02:57:07;;;;;;;28.63;14.95;;;-2.10;99.90;;;;;;5037134;28;20043;-74
2022/12/16 02:59:35;;;;;;;27.58;15.45;;;-2.10;99.90;;;;;;5061196;28;20211;-74
2022/12/16 03:02:12;;;;;;;31.17;16.05;;;-2.10;99.90;;;;;;5039871;28;20089;-74
2022/12/16 03:04:50;;;;;;;26.80;15.02;;;-2.10;99.90;;;;;;5040409;28;20037;-75
2022/12/16 03:07:19;;;;;;;31.23;15.45;;;-2.10;99.90;;;;;;5037483;28;20112;-74
2022/12/16 03:09:46;;;;;;;26.73;16.38;;;-2.20;99.90;;;;;;5040623;28;20475;-73
2022/12/16 03:12:15;;;;;;;30.80;16.05;;;-2.20;99.90;;;;;;5033969;28;20032;-75
2022/12/16 03:14:43;;;;;;;27.23;15.40;;;-2.20;99.90;;;;;;5035951;28;20075;-76
2022/12/16 03:17:10;;;;;;;30.60;16.40;;;-2.20;99.90;;;;;;5041519;28;20115;-74
2022/12/16 03:19:39;;;;;;;27.33;15.38;;;-2.30;99.90;;;;;;5051141;28;20475;-75
2022/12/16 03:22:12;;;;;;;30.60;16.15;;;-2.20;99.90;;;;;;5049285;28;20158;-74
2022/12/16 03:24:39;;;;;;;32.00;15.70;;;-2.30;99.90;;;;;;5039413;28;20135;-76
2022/12/16 03:27:08;;;;;;;27.88;16.27;;;-2.30;99.90;;;;;;5038038;28;20079;-74
2022/12/16 03:29:57;;;;;;;30.05;16.20;;;-2.30;99.90;;;;;;5054444;28;20059;-74
2022/12/16 03:32:32;;;;;;;34.47;17.30;;;-2.30;99.90;;;;;;5035071;28;20045;-74
2022/12/16 03:35:19;;;;;;;33.13;16.45;;;-2.30;99.90;;;;;;5034190;28;20029;-76
2022/12/16 03:37:48;;;;;;;35.50;17.33;;;-2.30;99.90;;;;;;5035543;28;20029;-74
2022/12/16 03:40:14;;;;;;;29.25;15.35;;;-2.30;99.90;;;;;;5039359;28;20419;-75
2022/12/16 03:42:42;;;;;;;34.70;17.38;;;-2.30;99.90;;;;;;5034824;28;20092;-74
2022/12/16 03:45:12;;;;;;;30.55;15.82;;;-2.30;99.90;;;;;;5040076;28;20616;-74
2022/12/16 03:47:38;;;;;;;31.17;15.65;;;-2.30;99.90;;;;;;5033348;28;20036;-75
2022/12/16 03:50:05;;;;;;;29.25;15.65;;;-2.30;99.90;;;;;;5037796;28;20037;-75
2022/12/16 03:52:31;;;;;;;30.05;16.85;;;-2.30;99.90;;;;;;5043162;28;20071;-74
2022/12/16 03:54:57;;;;;;;31.63;16.40;;;-2.30;99.90;;;;;;5032002;28;20476;-75
2022/12/16 03:57:23;;;;;;;32.05;17.50;;;-2.30;99.90;;;;;;5032150;28;20040;-75
2022/12/16 03:59:48;;;;;;;32.65;16.02;;;-2.30;99.90;;;;;;5045350;28;20055;-73
2022/12/16 04:02:14;;;;;;;35.75;16.13;;;-2.30;99.90;;;;;;5037726;28;20129;-76
2022/12/16 04:04:39;;;;;;;31.38;16.00;;;-2.30;99.90;;;;;;5039993;28;20033;-76
2022/12/16 04:07:20;;;;;;;28.63;16.85;;;-2.20;99.90;;;;;;5043360;28;20025;-75
2022/12/16 04:09:47;;;;;;;32.95;16.00;;;-2.30;99.90;;;;;;5036024;28;20041;-75
2022/12/16 04:26:05;;;;;;;29.92;16.33;;;-2.40;99.90;;;;;;5041665;28;20664;-74
2022/12/16 04:28:30;;;;;;;36.83;16.70;;;-2.40;99.90;;;;;;5038096;28;20025;-74
2022/12/16 04:30:56;;;;;;;33.88;17.40;;;-2.40;99.90;;;;;;5033400;28;20033;-74
